sensor_id;sensor_type;location;lat;lon;timestamp;pressure;altitude;pressure_sealevel;temperature;humidity
47935;BME280;33704;43.592;-79.628;2023-12-07T00:00:16;100120.95;;;34.56;18.40
47935;BME280;33704;43.592;-79.628;2023-12-07T00:00:47;100117.98;;;34.54;18.65
47935;BME280;33704;43.592;-79.628;2023-12-07T00:01:20;100118.72;;;34.54;18.41
47935;BME280;33704;43.592;-79.628;2023-12-07T00:01:52;100121.33;;;34.56;18.08
47935;BME280;33704;43.592;-79.628;2023-12-07T00:02:24;100120.48;;;34.50;18.16
47935;BME280;33704;43.592;-79.628;2023-12-07T00:02:55;100121.71;;;34.52;18.31
47935;BME280;33704;43.592;-79.628;2023-12-07T00:03:27;100123.93;;;34.55;18.42
47935;BME280;33704;43.592;-79.628;2023-12-07T00:04:00;100124.06;;;34.55;18.46
47935;BME280;33704;43.592;-79.628;2023-12-07T00:04:33;100124.44;;;34.55;18.13
47935;BME280;33704;43.592;-79.628;2023-12-07T00:05:05;100124.59;;;34.55;18.02
47935;BME280;33704;43.592;-79.628;2023-12-07T00:05:37;100125.69;;;34.56;18.20
47935;BME280;33704;43.592;-79.628;2023-12-07T00:06:10;100124.22;;;34.56;18.34
47935;BME280;33704;43.592;-79.628;2023-12-07T00:06:42;100123.81;;;34.57;18.35
47935;BME280;33704;43.592;-79.628;2023-12-07T00:07:14;100122.89;;;34.55;18.38
47935;BME280;33704;43.592;-79.628;2023-12-07T00:07:46;100121.22;;;34.57;18.27
47935;BME280;33704;43.592;-79.628;2023-12-07T00:08:17;100117.87;;;34.55;18.59
47935;BME280;33704;43.592;-79.628;2023-12-07T00:08:49;100118.62;;;34.54;18.75
47935;BME280;33704;43.592;-79.628;2023-12-07T00:09:21;100115.20;;;34.55;18.67
47935;BME280;33704;43.592;-79.628;2023-12-07T00:09:53;100114.74;;;34.52;18.79
47935;BME280;33704;43.592;-79.628;2023-12-07T00:10:25;100113.20;;;34.53;19.04
47935;BME280;33704;43.592;-79.628;2023-12-07T00:10:57;100112.29;;;34.52;19.05
47935;BME280;33704;43.592;-79.628;2023-12-07T00:11:30;100111.51;;;34.53;18.63
47935;BME280;33704;43.592;-79.628;2023-12-07T00:12:02;100111.67;;;34.56;18.77
47935;BME280;33704;43.592;-79.628;2023-12-07T00:12:34;100112.74;;;34.57;18.88
47935;BME280;33704;43.592;-79.628;2023-12-07T00:13:06;100111.91;;;34.58;18.92
47935;BME280;33704;43.592;-79.628;2023-12-07T00:13:37;100112.63;;;34.58;18.59
47935;BME280;33704;43.592;-79.628;2023-12-07T00:14:10;100112.61;;;34.57;18.83
47935;BME280;33704;43.592;-79.628;2023-12-07T00:14:42;100112.18;;;34.62;18.80
47935;BME280;33704;43.592;-79.628;2023-12-07T00:15:14;100110.19;;;34.59;18.70
47935;BME280;33704;43.592;-79.628;2023-12-07T00:15:45;100110.04;;;34.62;18.70
47935;BME280;33704;43.592;-79.628;2023-12-07T00:16:17;100110.25;;;34.61;19.87
47935;BME280;33704;43.592;-79.628;2023-12-07T00:16:50;100108.83;;;34.63;19.50
47935;BME280;33704;43.592;-79.628;2023-12-07T00:17:22;100110.62;;;34.62;19.10
47935;BME280;33704;43.592;-79.628;2023-12-07T00:17:54;100108.31;;;34.62;18.79
47935;BME280;33704;43.592;-79.628;2023-12-07T00:18:26;100110.07;;;34.64;18.94
47935;BME280;33704;43.592;-79.628;2023-12-07T00:18:58;100109.00;;;34.63;19.10
47935;BME280;33704;43.592;-79.628;2023-12-07T00:19:30;100107.86;;;34.62;19.58
47935;BME280;33704;43.592;-79.628;2023-12-07T00:20:02;100107.19;;;34.64;20.47
47935;BME280;33704;43.592;-79.628;2023-12-07T00:20:34;100106.82;;;34.64;20.78
47935;BME280;33704;43.592;-79.628;2023-12-07T00:21:08;100104.82;;;34.62;20.40
47935;BME280;33704;43.592;-79.628;2023-12-07T00:21:40;100106.54;;;34.63;20.46
47935;BME280;33704;43.592;-79.628;2023-12-07T00:22:12;100105.01;;;34.63;20.37
47935;BME280;33704;43.592;-79.628;2023-12-07T00:22:44;100103.30;;;34.61;20.29
47935;BME280;33704;43.592;-79.628;2023-12-07T00:23:16;100105.53;;;34.60;19.78
47935;BME280;33704;43.592;-79.628;2023-12-07T00:23:48;100105.69;;;34.60;19.93
47935;BME280;33704;43.592;-79.628;2023-12-07T00:24:21;100104.74;;;34.63;19.29
47935;BME280;33704;43.592;-79.628;2023-12-07T00:24:52;100106.53;;;34.63;20.29
47935;BME280;33704;43.592;-79.628;2023-12-07T00:25:24;100107.63;;;34.62;20.31
47935;BME280;33704;43.592;-79.628;2023-12-07T00:25:56;100109.92;;;34.63;20.65
47935;BME280;33704;43.592;-79.628;2023-12-07T00:26:28;100111.20;;;34.62;20.89
47935;BME280;33704;43.592;-79.628;2023-12-07T00:27:01;100112.53;;;34.62;20.95
47935;BME280;33704;43.592;-79.628;2023-12-07T00:27:32;100114.91;;;34.66;20.63
47935;BME280;33704;43.592;-79.628;2023-12-07T00:28:04;100116.82;;;34.69;20.11
47935;BME280;33704;43.592;-79.628;2023-12-07T00:28:36;100116.66;;;34.68;19.89
47935;BME280;33704;43.592;-79.628;2023-12-07T00:29:08;100116.83;;;34.67;20.36
47935;BME280;33704;43.592;-79.628;2023-12-07T00:29:41;100118.63;;;34.70;20.50
47935;BME280;33704;43.592;-79.628;2023-12-07T00:30:17;100118.76;;;34.67;21.03
47935;BME280;33704;43.592;-79.628;2023-12-07T00:30:49;100120.12;;;34.66;20.77
47935;BME280;33704;43.592;-79.628;2023-12-07T00:31:21;100123.09;;;34.68;20.59
47935;BME280;33704;43.592;-79.628;2023-12-07T00:31:53;100124.00;;;34.70;20.13
47935;BME280;33704;43.592;-79.628;2023-12-07T00:32:25;100124.27;;;34.73;19.87
47935;BME280;33704;43.592;-79.628;2023-12-07T00:32:57;100126.27;;;34.74;19.90
47935;BME280;33704;43.592;-79.628;2023-12-07T00:33:29;100124.36;;;34.70;19.97
47935;BME280;33704;43.592;-79.628;2023-12-07T00:34:02;100126.06;;;34.79;19.90
47935;BME280;33704;43.592;-79.628;2023-12-07T00:34:34;100127.22;;;34.75;19.63
47935;BME280;33704;43.592;-79.628;2023-12-07T00:35:06;100126.86;;;34.76;19.23
47935;BME280;33704;43.592;-79.628;2023-12-07T00:35:38;100128.50;;;34.77;19.61
47935;BME280;33704;43.592;-79.628;2023-12-07T00:36:10;100130.80;;;34.80;19.18
47935;BME280;33704;43.592;-79.628;2023-12-07T00:36:42;100132.84;;;34.84;19.01
47935;BME280;33704;43.592;-79.628;2023-12-07T00:37:14;100136.27;;;34.85;18.78
47935;BME280;33704;43.592;-79.628;2023-12-07T00:37:46;100135.52;;;34.87;18.56
47935;BME280;33704;43.592;-79.628;2023-12-07T00:38:17;100137.31;;;34.84;18.23
47935;BME280;33704;43.592;-79.628;2023-12-07T00:38:50;100134.78;;;34.82;17.67
47935;BME280;33704;43.592;-79.628;2023-12-07T00:39:22;100135.21;;;34.79;18.12
47935;BME280;33704;43.592;-79.628;2023-12-07T00:39:54;100136.06;;;34.77;18.03
47935;BME280;33704;43.592;-79.628;2023-12-07T00:40:26;100136.10;;;34.76;18.46
47935;BME280;33704;43.592;-79.628;2023-12-07T00:40:57;100134.96;;;34.71;18.86
47935;BME280;33704;43.592;-79.628;2023-12-07T00:41:29;100136.15;;;34.76;18.41
47935;BME280;33704;43.592;-79.628;2023-12-07T00:42:02;100137.68;;;34.73;18.13
47935;BME280;33704;43.592;-79.628;2023-12-07T00:42:34;100138.58;;;34.77;18.04
47935;BME280;33704;43.592;-79.628;2023-12-07T00:43:06;100139.87;;;34.78;18.42
47935;BME280;33704;43.592;-79.628;2023-12-07T00:43:38;100140.36;;;34.78;18.54
47935;BME280;33704;43.592;-79.628;2023-12-07T00:44:11;100137.26;;;34.80;18.33
47935;BME280;33704;43.592;-79.628;2023-12-07T00:44:43;100135.10;;;34.83;17.98
47935;BME280;33704;43.592;-79.628;2023-12-07T00:45:15;100134.43;;;34.83;17.94
47935;BME280;33704;43.592;-79.628;2023-12-07T00:45:47;100134.02;;;34.86;17.93
47935;BME280;33704;43.592;-79.628;2023-12-07T00:46:18;100134.17;;;34.86;17.89
47935;BME280;33704;43.592;-79.628;2023-12-07T00:46:51;100134.23;;;34.91;17.89
47935;BME280;33704;43.592;-79.628;2023-12-07T00:47:23;100133.33;;;34.86;18.08
47935;BME280;33704;43.592;-79.628;2023-12-07T00:47:55;100132.84;;;34.76;17.97
47935;BME280;33704;43.592;-79.628;2023-12-07T00:48:27;100130.57;;;34.72;17.99
47935;BME280;33704;43.592;-79.628;2023-12-07T00:48:58;100131.44;;;34.69;18.29
47935;BME280;33704;43.592;-79.628;2023-12-07T00:49:31;100130.26;;;34.67;18.10
47935;BME280;33704;43.592;-79.628;2023-12-07T00:50:04;100129.36;;;34.67;18.13
47935;BME280;33704;43.592;-79.628;2023-12-07T00:50:36;100127.74;;;34.69;18.06
47935;BME280;33704;43.592;-79.628;2023-12-07T00:51:08;100124.15;;;34.64;18.14
47935;BME280;33704;43.592;-79.628;2023-12-07T00:51:41;100121.84;;;34.64;17.97
47935;BME280;33704;43.592;-79.628;2023-12-07T00:52:13;100121.51;;;34.66;17.96
47935;BME280;33704;43.592;-79.628;2023-12-07T00:52:45;100119.63;;;34.64;18.09
47935;BME280;33704;43.592;-79.628;2023-12-07T00:53:16;100120.03;;;34.64;18.04
47935;BME280;33704;43.592;-79.628;2023-12-07T00:53:48;100118.50;;;34.62;18.25
47935;BME280;33704;43.592;-79.628;2023-12-07T00:54:21;100118.52;;;34.61;18.31
47935;BME280;33704;43.592;-79.628;2023-12-07T00:54:53;100118.42;;;34.59;18.12
47935;BME280;33704;43.592;-79.628;2023-12-07T00:55:24;100120.75;;;34.62;18.08
47935;BME280;33704;43.592;-79.628;2023-12-07T00:55:56;100120.82;;;34.60;18.01
47935;BME280;33704;43.592;-79.628;2023-12-07T00:56:28;100119.37;;;34.58;18.05
47935;BME280;33704;43.592;-79.628;2023-12-07T00:57:01;100119.24;;;34.59;18.05
47935;BME280;33704;43.592;-79.628;2023-12-07T00:57:33;100119.47;;;34.60;18.01
47935;BME280;33704;43.592;-79.628;2023-12-07T00:58:05;100120.97;;;34.60;18.11
47935;BME280;33704;43.592;-79.628;2023-12-07T00:58:37;100119.78;;;34.61;18.20
47935;BME280;33704;43.592;-79.628;2023-12-07T00:59:09;100118.97;;;34.64;17.93
47935;BME280;33704;43.592;-79.628;2023-12-07T00:59:41;100118.52;;;34.63;17.84
47935;BME280;33704;43.592;-79.628;2023-12-07T01:00:15;100121.37;;;34.60;18.15
47935;BME280;33704;43.592;-79.628;2023-12-07T01:00:47;100122.68;;;34.59;18.26
47935;BME280;33704;43.592;-79.628;2023-12-07T01:01:19;100122.34;;;34.60;18.04
47935;BME280;33704;43.592;-79.628;2023-12-07T01:01:51;100123.50;;;34.60;18.55
47935;BME280;33704;43.592;-79.628;2023-12-07T01:02:23;100121.56;;;34.63;17.99
47935;BME280;33704;43.592;-79.628;2023-12-07T01:02:54;100119.20;;;34.62;17.98
47935;BME280;33704;43.592;-79.628;2023-12-07T01:03:26;100118.55;;;34.60;18.25
47935;BME280;33704;43.592;-79.628;2023-12-07T01:03:58;100120.27;;;34.60;18.23
47935;BME280;33704;43.592;-79.628;2023-12-07T01:04:31;100118.30;;;34.60;18.02
47935;BME280;33704;43.592;-79.628;2023-12-07T01:05:03;100119.21;;;34.60;18.04
47935;BME280;33704;43.592;-79.628;2023-12-07T01:05:35;100120.48;;;34.57;18.06
47935;BME280;33704;43.592;-79.628;2023-12-07T01:06:08;100120.92;;;34.57;18.03
47935;BME280;33704;43.592;-79.628;2023-12-07T01:06:40;100119.89;;;34.57;18.35
47935;BME280;33704;43.592;-79.628;2023-12-07T01:07:12;100120.90;;;34.60;18.17
47935;BME280;33704;43.592;-79.628;2023-12-07T01:07:45;100121.26;;;34.64;18.63
47935;BME280;33704;43.592;-79.628;2023-12-07T01:08:17;100120.65;;;34.62;18.21
47935;BME280;33704;43.592;-79.628;2023-12-07T01:08:48;100120.17;;;34.59;17.86
47935;BME280;33704;43.592;-79.628;2023-12-07T01:09:21;100118.50;;;34.59;18.39
47935;BME280;33704;43.592;-79.628;2023-12-07T01:09:53;100114.50;;;34.56;18.49
47935;BME280;33704;43.592;-79.628;2023-12-07T01:10:25;100113.92;;;34.59;18.43
47935;BME280;33704;43.592;-79.628;2023-12-07T01:10:56;100111.68;;;34.57;18.30
47935;BME280;33704;43.592;-79.628;2023-12-07T01:11:29;100110.69;;;34.60;18.25
47935;BME280;33704;43.592;-79.628;2023-12-07T01:12:02;100111.57;;;34.59;18.05
47935;BME280;33704;43.592;-79.628;2023-12-07T01:12:34;100107.55;;;34.62;18.07
47935;BME280;33704;43.592;-79.628;2023-12-07T01:13:06;100103.76;;;34.62;18.07
47935;BME280;33704;43.592;-79.628;2023-12-07T01:13:38;100100.99;;;34.61;18.04
47935;BME280;33704;43.592;-79.628;2023-12-07T01:14:10;100103.01;;;34.63;18.13
47935;BME280;33704;43.592;-79.628;2023-12-07T01:14:42;100101.86;;;34.61;18.69
47935;BME280;33704;43.592;-79.628;2023-12-07T01:15:14;100102.85;;;34.61;18.31
47935;BME280;33704;43.592;-79.628;2023-12-07T01:15:46;100100.18;;;34.60;18.41
47935;BME280;33704;43.592;-79.628;2023-12-07T01:16:18;100100.94;;;34.61;18.28
47935;BME280;33704;43.592;-79.628;2023-12-07T01:16:50;100100.98;;;34.63;18.02
47935;BME280;33704;43.592;-79.628;2023-12-07T01:17:23;100098.81;;;34.63;18.14
47935;BME280;33704;43.592;-79.628;2023-12-07T01:17:54;100097.10;;;34.62;18.31
47935;BME280;33704;43.592;-79.628;2023-12-07T01:18:26;100093.73;;;34.62;18.11
47935;BME280;33704;43.592;-79.628;2023-12-07T01:18:58;100096.24;;;34.64;18.02
47935;BME280;33704;43.592;-79.628;2023-12-07T01:19:30;100096.88;;;34.66;17.94
47935;BME280;33704;43.592;-79.628;2023-12-07T01:20:04;100096.37;;;34.65;18.22
47935;BME280;33704;43.592;-79.628;2023-12-07T01:20:36;100097.85;;;34.63;18.26
47935;BME280;33704;43.592;-79.628;2023-12-07T01:21:08;100099.63;;;34.64;18.37
47935;BME280;33704;43.592;-79.628;2023-12-07T01:21:41;100097.71;;;34.63;18.52
47935;BME280;33704;43.592;-79.628;2023-12-07T01:22:13;100096.64;;;34.63;18.38
47935;BME280;33704;43.592;-79.628;2023-12-07T01:22:45;100096.01;;;34.62;18.25
47935;BME280;33704;43.592;-79.628;2023-12-07T01:23:16;100094.40;;;34.63;18.26
47935;BME280;33704;43.592;-79.628;2023-12-07T01:23:48;100097.77;;;34.64;18.11
47935;BME280;33704;43.592;-79.628;2023-12-07T01:24:21;100098.54;;;34.64;18.15
47935;BME280;33704;43.592;-79.628;2023-12-07T01:24:52;100098.94;;;34.63;18.17
47935;BME280;33704;43.592;-79.628;2023-12-07T01:25:24;100099.44;;;34.64;18.17
47935;BME280;33704;43.592;-79.628;2023-12-07T01:25:56;100101.16;;;34.65;18.18
47935;BME280;33704;43.592;-79.628;2023-12-07T01:26:28;100102.42;;;34.65;18.21
47935;BME280;33704;43.592;-79.628;2023-12-07T01:27:00;100102.56;;;34.63;18.31
47935;BME280;33704;43.592;-79.628;2023-12-07T01:27:32;100102.26;;;34.63;18.26
47935;BME280;33704;43.592;-79.628;2023-12-07T01:28:04;100103.29;;;34.63;18.37
47935;BME280;33704;43.592;-79.628;2023-12-07T01:28:36;100102.39;;;34.62;18.20
47935;BME280;33704;43.592;-79.628;2023-12-07T01:29:08;100104.92;;;34.67;18.13
47935;BME280;33704;43.592;-79.628;2023-12-07T01:29:41;100102.35;;;34.68;18.04
47935;BME280;33704;43.592;-79.628;2023-12-07T01:30:14;100103.38;;;34.67;18.23
47935;BME280;33704;43.592;-79.628;2023-12-07T01:30:46;100100.61;;;34.63;18.31
47935;BME280;33704;43.592;-79.628;2023-12-07T01:31:18;100099.95;;;34.63;18.35
47935;BME280;33704;43.592;-79.628;2023-12-07T01:31:51;100099.69;;;34.65;18.23
47935;BME280;33704;43.592;-79.628;2023-12-07T01:32:22;100099.41;;;34.65;18.34
47935;BME280;33704;43.592;-79.628;2023-12-07T01:32:54;100102.52;;;34.66;18.11
47935;BME280;33704;43.592;-79.628;2023-12-07T01:33:26;100101.19;;;34.63;18.25
47935;BME280;33704;43.592;-79.628;2023-12-07T01:33:58;100101.50;;;34.64;18.37
47935;BME280;33704;43.592;-79.628;2023-12-07T01:34:31;100100.59;;;34.63;18.46
47935;BME280;33704;43.592;-79.628;2023-12-07T01:35:03;100100.26;;;34.60;18.38
47935;BME280;33704;43.592;-79.628;2023-12-07T01:35:35;100102.99;;;34.60;18.27
47935;BME280;33704;43.592;-79.628;2023-12-07T01:36:08;100102.77;;;34.61;18.18
47935;BME280;33704;43.592;-79.628;2023-12-07T01:36:41;100104.08;;;34.62;18.18
47935;BME280;33704;43.592;-79.628;2023-12-07T01:37:13;100107.43;;;34.63;17.99
47935;BME280;33704;43.592;-79.628;2023-12-07T01:37:44;100105.75;;;34.63;18.26
47935;BME280;33704;43.592;-79.628;2023-12-07T01:38:16;100105.80;;;34.61;18.17
47935;BME280;33704;43.592;-79.628;2023-12-07T01:38:48;100105.46;;;34.62;18.19
47935;BME280;33704;43.592;-79.628;2023-12-07T01:39:21;100105.27;;;34.63;18.24
47935;BME280;33704;43.592;-79.628;2023-12-07T01:39:52;100104.92;;;34.64;18.31
47935;BME280;33704;43.592;-79.628;2023-12-07T01:40:24;100106.60;;;34.65;17.99
47935;BME280;33704;43.592;-79.628;2023-12-07T01:40:56;100106.58;;;34.63;18.18
47935;BME280;33704;43.592;-79.628;2023-12-07T01:41:28;100106.53;;;34.64;18.60
47935;BME280;33704;43.592;-79.628;2023-12-07T01:42:01;100106.50;;;34.64;18.45
47935;BME280;33704;43.592;-79.628;2023-12-07T01:42:33;100107.06;;;34.64;18.17
47935;BME280;33704;43.592;-79.628;2023-12-07T01:43:04;100107.62;;;34.63;18.29
47935;BME280;33704;43.592;-79.628;2023-12-07T01:43:36;100108.86;;;34.67;18.36
47935;BME280;33704;43.592;-79.628;2023-12-07T01:44:08;100107.37;;;34.69;18.21
47935;BME280;33704;43.592;-79.628;2023-12-07T01:44:41;100108.33;;;34.74;18.85
47935;BME280;33704;43.592;-79.628;2023-12-07T01:45:13;100105.99;;;34.72;18.24
47935;BME280;33704;43.592;-79.628;2023-12-07T01:45:44;100104.34;;;34.71;18.23
47935;BME280;33704;43.592;-79.628;2023-12-07T01:46:17;100103.26;;;34.71;18.29
47935;BME280;33704;43.592;-79.628;2023-12-07T01:46:50;100100.55;;;34.72;18.59
47935;BME280;33704;43.592;-79.628;2023-12-07T01:47:22;100099.83;;;34.73;19.25
47935;BME280;33704;43.592;-79.628;2023-12-07T01:47:54;100098.64;;;34.81;19.31
47935;BME280;33704;43.592;-79.628;2023-12-07T01:48:26;100095.78;;;34.78;19.38
47935;BME280;33704;43.592;-79.628;2023-12-07T01:48:58;100094.50;;;34.79;19.64
47935;BME280;33704;43.592;-79.628;2023-12-07T01:49:31;100094.76;;;34.81;19.80
47935;BME280;33704;43.592;-79.628;2023-12-07T01:50:05;100094.23;;;34.80;19.62
47935;BME280;33704;43.592;-79.628;2023-12-07T01:50:37;100093.24;;;34.79;19.18
47935;BME280;33704;43.592;-79.628;2023-12-07T01:51:10;100091.43;;;34.83;19.02
47935;BME280;33704;43.592;-79.628;2023-12-07T01:51:43;100088.18;;;34.84;18.89
47935;BME280;33704;43.592;-79.628;2023-12-07T01:52:15;100088.07;;;34.86;18.72
47935;BME280;33704;43.592;-79.628;2023-12-07T01:52:48;100089.19;;;34.82;18.92
47935;BME280;33704;43.592;-79.628;2023-12-07T01:53:22;100089.89;;;34.77;18.96
47935;BME280;33704;43.592;-79.628;2023-12-07T01:53:54;100090.82;;;34.77;18.99
47935;BME280;33704;43.592;-79.628;2023-12-07T01:54:26;100091.14;;;34.75;18.86
47935;BME280;33704;43.592;-79.628;2023-12-07T01:54:58;100092.97;;;34.79;18.88
47935;BME280;33704;43.592;-79.628;2023-12-07T01:55:31;100092.55;;;34.79;18.74
47935;BME280;33704;43.592;-79.628;2023-12-07T01:56:03;100092.95;;;34.78;18.89
47935;BME280;33704;43.592;-79.628;2023-12-07T01:56:35;100090.47;;;34.76;19.14
47935;BME280;33704;43.592;-79.628;2023-12-07T01:57:08;100092.13;;;34.74;19.32
47935;BME280;33704;43.592;-79.628;2023-12-07T01:57:41;100091.99;;;34.74;19.75
47935;BME280;33704;43.592;-79.628;2023-12-07T01:58:14;100092.64;;;34.78;19.14
47935;BME280;33704;43.592;-79.628;2023-12-07T01:58:49;100091.91;;;34.76;19.08
47935;BME280;33704;43.592;-79.628;2023-12-07T01:59:21;100092.19;;;34.81;18.91
47935;BME280;33704;43.592;-79.628;2023-12-07T01:59:53;100088.59;;;34.83;18.83
47935;BME280;33704;43.592;-79.628;2023-12-07T02:00:31;100087.62;;;34.79;19.19
47935;BME280;33704;43.592;-79.628;2023-12-07T02:01:03;100087.33;;;34.81;19.11
47935;BME280;33704;43.592;-79.628;2023-12-07T02:01:35;100086.11;;;34.80;19.01
47935;BME280;33704;43.592;-79.628;2023-12-07T02:02:08;100085.21;;;34.81;18.99
47935;BME280;33704;43.592;-79.628;2023-12-07T02:02:41;100081.64;;;34.81;18.94
47935;BME280;33704;43.592;-79.628;2023-12-07T02:03:13;100078.40;;;34.79;19.06
47935;BME280;33704;43.592;-79.628;2023-12-07T02:03:45;100071.74;;;34.81;18.89
47935;BME280;33704;43.592;-79.628;2023-12-07T02:04:17;100069.08;;;34.85;18.72
47935;BME280;33704;43.592;-79.628;2023-12-07T02:04:49;100066.40;;;34.89;18.71
47935;BME280;33704;43.592;-79.628;2023-12-07T02:05:22;100063.40;;;34.90;18.83
47935;BME280;33704;43.592;-79.628;2023-12-07T02:05:55;100060.72;;;34.87;18.94
47935;BME280;33704;43.592;-79.628;2023-12-07T02:06:33;100062.41;;;34.87;18.81
47935;BME280;33704;43.592;-79.628;2023-12-07T02:07:05;100060.04;;;34.84;18.78
47935;BME280;33704;43.592;-79.628;2023-12-07T02:07:39;100060.32;;;34.88;18.67
47935;BME280;33704;43.592;-79.628;2023-12-07T02:08:12;100060.19;;;34.89;18.94
47935;BME280;33704;43.592;-79.628;2023-12-07T02:08:44;100062.05;;;34.92;19.05
47935;BME280;33704;43.592;-79.628;2023-12-07T02:09:16;100060.71;;;34.91;18.92
47935;BME280;33704;43.592;-79.628;2023-12-07T02:09:48;100061.45;;;34.90;18.88
47935;BME280;33704;43.592;-79.628;2023-12-07T02:10:21;100057.69;;;34.91;18.94
47935;BME280;33704;43.592;-79.628;2023-12-07T02:10:53;100058.61;;;34.92;18.78
47935;BME280;33704;43.592;-79.628;2023-12-07T02:11:24;100054.82;;;34.93;19.03
47935;BME280;33704;43.592;-79.628;2023-12-07T02:11:56;100056.83;;;34.93;18.87
47935;BME280;33704;43.592;-79.628;2023-12-07T02:12:28;100054.29;;;34.95;18.84
47935;BME280;33704;43.592;-79.628;2023-12-07T02:13:02;100051.44;;;34.95;18.85
47935;BME280;33704;43.592;-79.628;2023-12-07T02:13:34;100054.40;;;34.92;19.01
47935;BME280;33704;43.592;-79.628;2023-12-07T02:14:06;100052.06;;;34.92;18.87
47935;BME280;33704;43.592;-79.628;2023-12-07T02:14:38;100052.34;;;34.94;18.78
47935;BME280;33704;43.592;-79.628;2023-12-07T02:15:12;100052.25;;;34.91;19.06
47935;BME280;33704;43.592;-79.628;2023-12-07T02:15:44;100051.41;;;34.87;19.85
47935;BME280;33704;43.592;-79.628;2023-12-07T02:16:23;100051.36;;;34.86;19.43
47935;BME280;33704;43.592;-79.628;2023-12-07T02:17:00;100050.52;;;34.84;19.08
47935;BME280;33704;43.592;-79.628;2023-12-07T02:17:40;100048.36;;;34.82;19.17
47935;BME280;33704;43.592;-79.628;2023-12-07T02:18:23;100045.36;;;34.81;19.72
47935;BME280;33704;43.592;-79.628;2023-12-07T02:19:02;100041.37;;;34.85;19.64
47935;BME280;33704;43.592;-79.628;2023-12-07T02:19:51;100038.66;;;34.82;19.22
47935;BME280;33704;43.592;-79.628;2023-12-07T02:20:28;100037.76;;;34.82;18.96
47935;BME280;33704;43.592;-79.628;2023-12-07T02:21:07;100034.52;;;34.88;19.02
47935;BME280;33704;43.592;-79.628;2023-12-07T02:21:48;100032.87;;;34.90;19.15
47935;BME280;33704;43.592;-79.628;2023-12-07T02:22:27;100029.86;;;34.90;18.92
47935;BME280;33704;43.592;-79.628;2023-12-07T02:23:03;100029.34;;;34.86;19.18
47935;BME280;33704;43.592;-79.628;2023-12-07T02:23:36;100028.96;;;34.83;19.27
47935;BME280;33704;43.592;-79.628;2023-12-07T02:24:10;100027.70;;;34.84;19.78
47935;BME280;33704;43.592;-79.628;2023-12-07T02:24:51;100026.93;;;34.86;19.13
47935;BME280;33704;43.592;-79.628;2023-12-07T02:25:35;100027.67;;;34.87;19.19
47935;BME280;33704;43.592;-79.628;2023-12-07T02:26:08;100028.00;;;34.84;19.10
47935;BME280;33704;43.592;-79.628;2023-12-07T02:26:42;100029.89;;;34.80;19.22
47935;BME280;33704;43.592;-79.628;2023-12-07T02:27:13;100029.93;;;34.83;18.96
47935;BME280;33704;43.592;-79.628;2023-12-07T02:27:46;100027.82;;;34.88;19.22
47935;BME280;33704;43.592;-79.628;2023-12-07T02:28:18;100025.25;;;34.91;18.89
47935;BME280;33704;43.592;-79.628;2023-12-07T02:28:49;100024.54;;;34.90;19.15
47935;BME280;33704;43.592;-79.628;2023-12-07T02:29:21;100023.44;;;34.86;18.82
47935;BME280;33704;43.592;-79.628;2023-12-07T02:29:53;100022.68;;;34.91;18.61
47935;BME280;33704;43.592;-79.628;2023-12-07T02:30:25;100023.33;;;34.89;18.88
47935;BME280;33704;43.592;-79.628;2023-12-07T02:30:57;100024.37;;;34.92;18.95
47935;BME280;33704;43.592;-79.628;2023-12-07T02:31:30;100025.24;;;34.89;19.11
47935;BME280;33704;43.592;-79.628;2023-12-07T02:32:03;100026.27;;;34.93;18.87
47935;BME280;33704;43.592;-79.628;2023-12-07T02:32:35;100025.91;;;34.93;19.04
47935;BME280;33704;43.592;-79.628;2023-12-07T02:33:07;100024.19;;;34.94;18.93
47935;BME280;33704;43.592;-79.628;2023-12-07T02:33:40;100021.60;;;34.94;18.88
47935;BME280;33704;43.592;-79.628;2023-12-07T02:34:12;100018.25;;;34.97;18.84
47935;BME280;33704;43.592;-79.628;2023-12-07T02:34:44;100013.39;;;35.00;19.21
47935;BME280;33704;43.592;-79.628;2023-12-07T02:35:16;100009.91;;;34.94;19.00
47935;BME280;33704;43.592;-79.628;2023-12-07T02:35:48;100006.32;;;34.99;18.88
47935;BME280;33704;43.592;-79.628;2023-12-07T02:36:23;100004.15;;;35.02;18.69
47935;BME280;33704;43.592;-79.628;2023-12-07T02:37:00;100000.29;;;35.01;18.86
47935;BME280;33704;43.592;-79.628;2023-12-07T02:37:37;99994.92;;;35.05;18.72
47935;BME280;33704;43.592;-79.628;2023-12-07T02:38:12;99986.94;;;35.05;18.63
47935;BME280;33704;43.592;-79.628;2023-12-07T02:38:44;99982.48;;;35.08;18.56
47935;BME280;33704;43.592;-79.628;2023-12-07T02:39:18;99980.86;;;35.05;18.68
47935;BME280;33704;43.592;-79.628;2023-12-07T02:39:52;99983.32;;;35.09;18.66
47935;BME280;33704;43.592;-79.628;2023-12-07T02:40:25;99987.52;;;35.08;18.79
47935;BME280;33704;43.592;-79.628;2023-12-07T02:41:00;99989.82;;;35.06;18.81
47935;BME280;33704;43.592;-79.628;2023-12-07T02:41:33;99988.98;;;35.06;18.56
47935;BME280;33704;43.592;-79.628;2023-12-07T02:42:06;99986.44;;;35.10;18.61
47935;BME280;33704;43.592;-79.628;2023-12-07T02:42:40;99979.87;;;35.15;18.57
47935;BME280;33704;43.592;-79.628;2023-12-07T02:43:13;99977.08;;;35.18;18.32
47935;BME280;33704;43.592;-79.628;2023-12-07T02:43:47;99973.70;;;35.16;18.33
47935;BME280;33704;43.592;-79.628;2023-12-07T02:44:20;99975.09;;;35.17;18.39
47935;BME280;33704;43.592;-79.628;2023-12-07T02:44:54;99976.61;;;35.10;18.31
47935;BME280;33704;43.592;-79.628;2023-12-07T02:45:26;99977.39;;;35.12;18.52
47935;BME280;33704;43.592;-79.628;2023-12-07T02:45:58;99973.53;;;35.17;18.49
47935;BME280;33704;43.592;-79.628;2023-12-07T02:46:30;99969.38;;;35.19;18.49